^^
Saratoga-Weather Station Historical Data
Daily Summary for July 25, 2020 Units:  Both    English   Metric
Daily Weekly Monthly Yearly Custom
  High: Low: Average:
Temperature: 41.2 °F /  5.1 °C 36.1 °F /  2.3 °C 38.3 °F /  3.5 °C
Dew Point: 36 °F /  2.2 °C 32.2 °F /  0.1 °C 33.8 °F /  1 °C
Humidity: 91% 71% 84%
Wind Speed: 11mph /  17.7km/h - 3.3mph /  5.3km/h
Wind Gust: 13mph /  20.9km/h - -
Wind- - West
Pressure: 30.3 in /  1025.1 hPa 30 in /  1016.9 hPa -
Precipitation: 0 in /  0.0 mm    
Historical Graphs
 
 
Tabular Data for July 25, 2020
Time Temperature Dew Point Pressure Wind Wind Speed Wind Gust Humidity Rainfall Rate (Hourly) solar
00:01 37.4 °F /  3 °C 35.1 °F /  1.7 °C 30in /  1016.9hPa WNW 2.9mph /  4.7km/h 4mph /  6.4km/h 91% 0in /  0.0mm 0 W/m2
00:06 37.4 °F /  3 °C 35.1 °F /  1.7 °C 30in /  1016.9hPa West 2.9mph /  4.7km/h 6mph /  9.7km/h 91% 0in /  0.0mm 0 W/m2
00:11 37.6 °F /  3.1 °C 35.2 °F /  1.8 °C 30in /  1016.9hPa WNW 2mph /  3.2km/h 4mph /  6.4km/h 91% 0in /  0.0mm 0 W/m2
00:16 37.4 °F /  3 °C 35.1 °F /  1.7 °C 30in /  1016.9hPa WSW 2mph /  3.2km/h 4mph /  6.4km/h 91% 0in /  0.0mm 0 W/m2
00:21 37.2 °F /  2.9 °C 34.5 °F /  1.4 °C 30in /  1016.9hPa West 6mph /  9.7km/h 6mph /  9.7km/h 90% 0in /  0.0mm 0 W/m2
00:26 37.2 °F /  2.9 °C 34.5 °F /  1.4 °C 30in /  1016.9hPa West 8.1mph /  13km/h 8mph /  12.9km/h 90% 0in /  0.0mm 0 W/m2
00:31 37.2 °F /  2.9 °C 34.5 °F /  1.4 °C 30in /  1016.9hPa WNW 2.9mph /  4.7km/h 5mph /  8km/h 90% 0in /  0.0mm 0 W/m2
00:36 37.2 °F /  2.9 °C 34.5 °F /  1.4 °C 30in /  1016.9hPa West 2mph /  3.2km/h 4mph /  6.4km/h 90% 0in /  0.0mm 0 W/m2
00:41 37 °F /  2.8 °C 34.7 °F /  1.5 °C 30in /  1016.9hPa WNW 2mph /  3.2km/h 5mph /  8km/h 91% 0in /  0.0mm 0 W/m2
00:46 37.2 °F /  2.9 °C 34.9 °F /  1.6 °C 30in /  1017.3hPa NW 2.9mph /  4.7km/h 3mph /  4.8km/h 91% 0in /  0.0mm 0 W/m2
00:51 37.2 °F /  2.9 °C 34.9 °F /  1.6 °C 30in /  1017.3hPa WSW 2mph /  3.2km/h 5mph /  8km/h 91% 0in /  0.0mm 0 W/m2
00:56 37.2 °F /  2.9 °C 34.9 °F /  1.6 °C 30in /  1017.3hPa West 0.9mph /  1.4km/h 2mph /  3.2km/h 91% 0in /  0.0mm 0 W/m2
01:01 37 °F /  2.8 °C 34.7 °F /  1.5 °C 30in /  1017.3hPa WNW 2mph /  3.2km/h 4mph /  6.4km/h 91% 0in /  0.0mm 0 W/m2
01:06 37 °F /  2.8 °C 34.7 °F /  1.5 °C 30in /  1017.3hPa NW 2mph /  3.2km/h 8mph /  12.9km/h 91% 0in /  0.0mm 0 W/m2
01:11 37.2 °F /  2.9 °C 34.9 °F /  1.6 °C 30in /  1017.3hPa Calm   4mph /  6.4km/h 91% 0in /  0.0mm 0 W/m2
01:16 37.2 °F /  2.9 °C 34.9 °F /  1.6 °C 30in /  1017.3hPa SW 2.9mph /  4.7km/h 4mph /  6.4km/h 91% 0in /  0.0mm 0 W/m2
01:21 37.2 °F /  2.9 °C 34.9 °F /  1.6 °C 30in /  1017.3hPa WNW 2mph /  3.2km/h 4mph /  6.4km/h 91% 0in /  0.0mm 0 W/m2
01:26 37.6 °F /  3.1 °C 35.2 °F /  1.8 °C 30in /  1017.3hPa WNW 2.9mph /  4.7km/h 5mph /  8km/h 91% 0in /  0.0mm 0 W/m2
01:31 37.6 °F /  3.1 °C 35.2 °F /  1.8 °C 30in /  1017.3hPa WNW 4mph /  6.4km/h 5mph /  8km/h 91% 0in /  0.0mm 0 W/m2
01:36 37.6 °F /  3.1 °C 35.2 °F /  1.8 °C 30in /  1017.3hPa West 6mph /  9.7km/h 7mph /  11.3km/h 91% 0in /  0.0mm 0 W/m2
01:41 37.6 °F /  3.1 °C 35.2 °F /  1.8 °C 30in /  1017.3hPa West 4mph /  6.4km/h 7mph /  11.3km/h 91% 0in /  0.0mm 0 W/m2
01:46 37.6 °F /  3.1 °C 35.2 °F /  1.8 °C 30.1in /  1017.6hPa WNW 8.9mph /  14.3km/h 10mph /  16.1km/h 91% 0in /  0.0mm 0 W/m2
01:51 37.6 °F /  3.1 °C 35.2 °F /  1.8 °C 30.1in /  1017.6hPa WNW 4.9mph /  7.9km/h 7mph /  11.3km/h 91% 0in /  0.0mm 0 W/m2
01:56 37.8 °F /  3.2 °C 35.4 °F /  1.9 °C 30.1in /  1017.6hPa WNW 4mph /  6.4km/h 9mph /  14.5km/h 91% 0in /  0.0mm 0 W/m2
02:01 37.8 °F /  3.2 °C 35.4 °F /  1.9 °C 30.1in /  1017.6hPa WSW 2.9mph /  4.7km/h 9mph /  14.5km/h 91% 0in /  0.0mm 0 W/m2
02:06 37.9 °F /  3.3 °C 35.6 °F /  2 °C 30.1in /  1017.6hPa West 4mph /  6.4km/h 10mph /  16.1km/h 91% 0in /  0.0mm 0 W/m2
02:11 37.9 °F /  3.3 °C 35.6 °F /  2 °C 30.1in /  1017.6hPa West 2.9mph /  4.7km/h 10mph /  16.1km/h 91% 0in /  0.0mm 0 W/m2
02:16 37.9 °F /  3.3 °C 35.6 °F /  2 °C 30.1in /  1017.6hPa WSW 4.9mph /  7.9km/h 8mph /  12.9km/h 91% 0in /  0.0mm 0 W/m2
02:21 38.1 °F /  3.4 °C 35.8 °F /  2.1 °C 30.1in /  1018.0hPa West 4mph /  6.4km/h 5mph /  8km/h 91% 0in /  0.0mm 0 W/m2
02:26 38.1 °F /  3.4 °C 35.8 °F /  2.1 °C 30.1in /  1018.0hPa WNW 6.9mph /  11.1km/h 8mph /  12.9km/h 91% 0in /  0.0mm 0 W/m2
02:31 38.1 °F /  3.4 °C 35.8 °F /  2.1 °C 30.1in /  1018.0hPa NW 4.9mph /  7.9km/h 7mph /  11.3km/h 91% 0in /  0.0mm 0 W/m2
02:36 38.1 °F /  3.4 °C 35.4 °F /  1.9 °C 30.1in /  1018.0hPa West 2.9mph /  4.7km/h 9mph /  14.5km/h 90% 0in /  0.0mm 0 W/m2
02:41 37.9 °F /  3.3 °C 35.6 °F /  2 °C 30.1in /  1018.0hPa West 2.9mph /  4.7km/h 8mph /  12.9km/h 91% 0in /  0.0mm 0 W/m2
02:46 37.9 °F /  3.3 °C 35.6 °F /  2 °C 30.1in /  1018.0hPa West 2.9mph /  4.7km/h 7mph /  11.3km/h 91% 0in /  0.0mm 0 W/m2
02:51 37.9 °F /  3.3 °C 35.6 °F /  2 °C 30.1in /  1018.3hPa WSW 4mph /  6.4km/h 6mph /  9.7km/h 91% 0in /  0.0mm 0 W/m2
02:56 37.9 °F /  3.3 °C 35.6 °F /  2 °C 30.1in /  1018.3hPa WNW 4mph /  6.4km/h 8mph /  12.9km/h 91% 0in /  0.0mm 0 W/m2
03:01 38.1 °F /  3.4 °C 35.8 °F /  2.1 °C 30.1in /  1018.3hPa WNW 2.9mph /  4.7km/h 8mph /  12.9km/h 91% 0in /  0.0mm 0 W/m2
03:07 38.1 °F /  3.4 °C 35.8 °F /  2.1 °C 30.1in /  1018.3hPa WSW 4mph /  6.4km/h 8mph /  12.9km/h 91% 0in /  0.0mm 0 W/m2
03:12 37.9 °F /  3.3 °C 35.6 °F /  2 °C 30.1in /  1018.0hPa West 2mph /  3.2km/h 8mph /  12.9km/h 91% 0in /  0.0mm 0 W/m2
03:17 37.9 °F /  3.3 °C 35.6 °F /  2 °C 30.1in /  1018.3hPa West 6mph /  9.7km/h 8mph /  12.9km/h 91% 0in /  0.0mm 0 W/m2
03:22 37.8 °F /  3.2 °C 35.4 °F /  1.9 °C 30.1in /  1018.3hPa West 2mph /  3.2km/h 4mph /  6.4km/h 91% 0in /  0.0mm 0 W/m2
03:27 37.8 °F /  3.2 °C 35.4 °F /  1.9 °C 30.1in /  1018.3hPa West 2mph /  3.2km/h 8mph /  12.9km/h 91% 0in /  0.0mm 0 W/m2
03:32 37.8 °F /  3.2 °C 35.4 °F /  1.9 °C 30.1in /  1018.3hPa West 2.9mph /  4.7km/h 6mph /  9.7km/h 91% 0in /  0.0mm 0 W/m2
03:37 37.8 °F /  3.2 °C 35.4 °F /  1.9 °C 30.1in /  1018.3hPa NW 2mph /  3.2km/h 7mph /  11.3km/h 91% 0in /  0.0mm 0 W/m2
03:42 37.9 °F /  3.3 °C 35.6 °F /  2 °C 30.1in /  1018.6hPa West 2.9mph /  4.7km/h 7mph /  11.3km/h 91% 0in /  0.0mm 0 W/m2
03:47 38.1 °F /  3.4 °C 35.8 °F /  2.1 °C 30.1in /  1018.6hPa West 6mph /  9.7km/h 7mph /  11.3km/h 91% 0in /  0.0mm 0 W/m2
03:52 38.3 °F /  3.5 °C 36 °F /  2.2 °C 30.1in /  1018.6hPa West 4mph /  6.4km/h 8mph /  12.9km/h 91% 0in /  0.0mm 0 W/m2
03:57 38.5 °F /  3.6 °C 35.8 °F /  2.1 °C 30.1in /  1018.6hPa WSW 2.9mph /  4.7km/h 7mph /  11.3km/h 90% 0in /  0.0mm 0 W/m2
04:02 38.5 °F /  3.6 °C 35.8 °F /  2.1 °C 30.1in /  1018.6hPa WSW 4mph /  6.4km/h 5mph /  8km/h 90% 0in /  0.0mm 0 W/m2
04:07 38.5 °F /  3.6 °C 35.8 °F /  2.1 °C 30.1in /  1018.6hPa WSW 2.9mph /  4.7km/h 8mph /  12.9km/h 90% 0in /  0.0mm 0 W/m2
04:12 38.7 °F /  3.7 °C 35.8 °F /  2.1 °C 30.1in /  1018.6hPa West 4mph /  6.4km/h 7mph /  11.3km/h 89% 0in /  0.0mm 0 W/m2
04:17 38.7 °F /  3.7 °C 35.8 °F /  2.1 °C 30.1in /  1018.6hPa WNW 2.9mph /  4.7km/h 6mph /  9.7km/h 89% 0in /  0.0mm 0 W/m2
04:22 38.7 °F /  3.7 °C 35.8 °F /  2.1 °C 30.1in /  1018.6hPa West 2.9mph /  4.7km/h 6mph /  9.7km/h 89% 0in /  0.0mm 0 W/m2
04:27 38.5 °F /  3.6 °C 35.6 °F /  2 °C 30.1in /  1018.6hPa West 2.9mph /  4.7km/h 6mph /  9.7km/h 89% 0in /  0.0mm 0 W/m2
04:32 38.5 °F /  3.6 °C 35.6 °F /  2 °C 30.1in /  1018.6hPa WNW 2.9mph /  4.7km/h 4mph /  6.4km/h 89% 0in /  0.0mm 0 W/m2
04:37 38.5 °F /  3.6 °C 35.6 °F /  2 °C 30.1in /  1018.6hPa NW 2mph /  3.2km/h 6mph /  9.7km/h 89% 0in /  0.0mm 0 W/m2
04:42 38.5 °F /  3.6 °C 35.6 °F /  2 °C 30.1in /  1018.6hPa WSW 6.9mph /  11.1km/h 7mph /  11.3km/h 89% 0in /  0.0mm 0 W/m2
04:47 38.5 °F /  3.6 °C 35.6 °F /  2 °C 30.1in /  1019.0hPa WNW 2.9mph /  4.7km/h 4mph /  6.4km/h 89% 0in /  0.0mm 0 W/m2
04:52 38.3 °F /  3.5 °C 35.6 °F /  2 °C 30.1in /  1019.0hPa NW 2.9mph /  4.7km/h 6mph /  9.7km/h 90% 0in /  0.0mm 0 W/m2
04:57 38.3 °F /  3.5 °C 35.6 °F /  2 °C 30.1in /  1019.0hPa West 2mph /  3.2km/h 3mph /  4.8km/h 90% 0in /  0.0mm 0 W/m2
05:02 38.1 °F /  3.4 °C 35.4 °F /  1.9 °C 30.1in /  1019.0hPa Calm   2mph /  3.2km/h 90% 0in /  0.0mm 0 W/m2
05:07 38.1 °F /  3.4 °C 35.4 °F /  1.9 °C 30.1in /  1019.0hPa West 2mph /  3.2km/h 3mph /  4.8km/h 90% 0in /  0.0mm 0 W/m2
05:12 38.1 °F /  3.4 °C 35.4 °F /  1.9 °C 30.1in /  1019.0hPa NW 4mph /  6.4km/h 10mph /  16.1km/h 90% 0in /  0.0mm 0 W/m2
05:17 38.1 °F /  3.4 °C 35.4 °F /  1.9 °C 30.1in /  1019.0hPa NW 2.9mph /  4.7km/h 4mph /  6.4km/h 90% 0in /  0.0mm 0 W/m2
05:22 38.3 °F /  3.5 °C 35.6 °F /  2 °C 30.1in /  1018.6hPa West 2.9mph /  4.7km/h 10mph /  16.1km/h 90% 0in /  0.0mm 0 W/m2
05:27 38.5 °F /  3.6 °C 35.8 °F /  2.1 °C 30.1in /  1019.0hPa WSW 2.9mph /  4.7km/h 6mph /  9.7km/h 90% 0in /  0.0mm 0 W/m2
05:32 38.5 °F /  3.6 °C 35.8 °F /  2.1 °C 30.1in /  1019.0hPa WNW 2.9mph /  4.7km/h 3mph /  4.8km/h 90% 0in /  0.0mm 0 W/m2
05:37 38.5 °F /  3.6 °C 35.8 °F /  2.1 °C 30.1in /  1019.0hPa WNW 2.9mph /  4.7km/h 5mph /  8km/h 90% 0in /  0.0mm 0 W/m2
05:42 38.5 °F /  3.6 °C 35.8 °F /  2.1 °C 30.1in /  1019.3hPa WNW 8.9mph /  14.3km/h 9mph /  14.5km/h 90% 0in /  0.0mm 0 W/m2
05:47 38.7 °F /  3.7 °C 35.8 °F /  2.1 °C 30.1in /  1019.3hPa West 4mph /  6.4km/h 6mph /  9.7km/h 89% 0in /  0.0mm 0 W/m2
05:52 38.7 °F /  3.7 °C 35.8 °F /  2.1 °C 30.1in /  1019.6hPa WNW 4mph /  6.4km/h 6mph /  9.7km/h 89% 0in /  0.0mm 0 W/m2
05:57 38.7 °F /  3.7 °C 35.8 °F /  2.1 °C 30.1in /  1019.6hPa WNW 2.9mph /  4.7km/h 4mph /  6.4km/h 89% 0in /  0.0mm 0 W/m2
06:02 38.8 °F /  3.8 °C 35.6 °F /  2 °C 30.1in /  1019.6hPa WNW 2mph /  3.2km/h 4mph /  6.4km/h 88% 0in /  0.0mm 0 W/m2
06:07 38.8 °F /  3.8 °C 35.6 °F /  2 °C 30.1in /  1019.6hPa WNW 2.9mph /  4.7km/h 6mph /  9.7km/h 88% 0in /  0.0mm 0 W/m2
06:12 38.8 °F /  3.8 °C 35.6 °F /  2 °C 30.1in /  1019.6hPa NW 2.9mph /  4.7km/h 4mph /  6.4km/h 88% 0in /  0.0mm 0 W/m2
06:17 38.8 °F /  3.8 °C 35.2 °F /  1.8 °C 30.1in /  1019.6hPa NW 6mph /  9.7km/h 7mph /  11.3km/h 87% 0in /  0.0mm 0 W/m2
06:22 38.8 °F /  3.8 °C 35.1 °F /  1.7 °C 30.1in /  1019.6hPa West 4mph /  6.4km/h 8mph /  12.9km/h 86% 0in /  0.0mm 0 W/m2
06:27 39 °F /  3.9 °C 35.2 °F /  1.8 °C 30.1in /  1019.6hPa WNW 6.9mph /  11.1km/h 8mph /  12.9km/h 86% 0in /  0.0mm 0 W/m2
06:32 39 °F /  3.9 °C 35.2 °F /  1.8 °C 30.1in /  1019.6hPa WNW 4mph /  6.4km/h 5mph /  8km/h 86% 0in /  0.0mm 0 W/m2
06:37 38.8 °F /  3.8 °C 35.1 °F /  1.7 °C 30.1in /  1020.0hPa NW 2.9mph /  4.7km/h 9mph /  14.5km/h 86% 0in /  0.0mm 0 W/m2
06:42 38.8 °F /  3.8 °C 35.1 °F /  1.7 °C 30.1in /  1020.0hPa West 2mph /  3.2km/h 8mph /  12.9km/h 86% 0in /  0.0mm 0 W/m2
06:47 38.8 °F /  3.8 °C 34.7 °F /  1.5 °C 30.1in /  1020.0hPa NW 4mph /  6.4km/h 9mph /  14.5km/h 85% 0in /  0.0mm 0 W/m2
06:52 38.8 °F /  3.8 °C 34.7 °F /  1.5 °C 30.1in /  1020.3hPa NW 4.9mph /  7.9km/h 8mph /  12.9km/h 85% 0in /  0.0mm 0 W/m2
06:57 38.8 °F /  3.8 °C 34.7 °F /  1.5 °C 30.1in /  1020.3hPa WNW 4mph /  6.4km/h 8mph /  12.9km/h 85% 0in /  0.0mm 0 W/m2
07:02 38.7 °F /  3.7 °C 34.5 °F /  1.4 °C 30.1in /  1020.3hPa North 2mph /  3.2km/h 7mph /  11.3km/h 85% 0in /  0.0mm 0 W/m2
07:07 38.7 °F /  3.7 °C 34.5 °F /  1.4 °C 30.1in /  1020.3hPa NW 2.9mph /  4.7km/h 7mph /  11.3km/h 85% 0in /  0.0mm 0 W/m2
07:12 38.5 °F /  3.6 °C 34.3 °F /  1.3 °C 30.1in /  1020.7hPa NNW 8.1mph /  13km/h 10mph /  16.1km/h 85% 0in /  0.0mm 0 W/m2
07:17 38.5 °F /  3.6 °C 34.3 °F /  1.3 °C 30.1in /  1020.7hPa WNW 6.9mph /  11.1km/h 7mph /  11.3km/h 85% 0in /  0.0mm 0 W/m2
07:22 38.5 °F /  3.6 °C 34.3 °F /  1.3 °C 30.1in /  1020.7hPa NW 2.9mph /  4.7km/h 7mph /  11.3km/h 85% 0in /  0.0mm 0 W/m2
07:27 38.3 °F /  3.5 °C 34.2 °F /  1.2 °C 30.1in /  1020.7hPa WNW 2mph /  3.2km/h 6mph /  9.7km/h 85% 0in /  0.0mm 0 W/m2
07:32 38.1 °F /  3.4 °C 34 °F /  1.1 °C 30.2in /  1021.0hPa West 6.9mph /  11.1km/h 9mph /  14.5km/h 85% 0in /  0.0mm 0 W/m2
07:37 37.9 °F /  3.3 °C 33.8 °F /  1 °C 30.2in /  1021.0hPa WNW 2mph /  3.2km/h 5mph /  8km/h 85% 0in /  0.0mm 0 W/m2
07:42 37.9 °F /  3.3 °C 33.6 °F /  0.9 °C 30.2in /  1021.0hPa WSW 2mph /  3.2km/h 7mph /  11.3km/h 84% 0in /  0.0mm 0 W/m2
07:47 37.8 °F /  3.2 °C 33.4 °F /  0.8 °C 30.2in /  1021.0hPa NNW 2mph /  3.2km/h 4mph /  6.4km/h 84% 0in /  0.0mm 0 W/m2
07:52 37.8 °F /  3.2 °C 33.4 °F /  0.8 °C 30.2in /  1021.3hPa NNW 2mph /  3.2km/h 4mph /  6.4km/h 84% 0in /  0.0mm 0 W/m2
07:57 37.8 °F /  3.2 °C 33.4 °F /  0.8 °C 30.2in /  1021.3hPa NW 2.9mph /  4.7km/h 5mph /  8km/h 84% 0in /  0.0mm 0 W/m2
08:02 37.6 °F /  3.1 °C 33.3 °F /  0.7 °C 30.2in /  1021.3hPa NW 2mph /  3.2km/h 4mph /  6.4km/h 84% 0in /  0.0mm 0 W/m2
08:07 37.6 °F /  3.1 °C 33.3 °F /  0.7 °C 30.2in /  1021.3hPa WNW 2.9mph /  4.7km/h 6mph /  9.7km/h 84% 0in /  0.0mm 0 W/m2
08:12 37.2 °F /  2.9 °C 32.9 °F /  0.5 °C 30.2in /  1021.3hPa NW 2.9mph /  4.7km/h 8mph /  12.9km/h 84% 0in /  0.0mm 0 W/m2
08:17 37.2 °F /  2.9 °C 32.9 °F /  0.5 °C 30.2in /  1021.3hPa West 4mph /  6.4km/h 6mph /  9.7km/h 84% 0in /  0.0mm 0 W/m2
08:22 37.2 °F /  2.9 °C 32.9 °F /  0.5 °C 30.2in /  1021.3hPa WNW 0.9mph /  1.4km/h 3mph /  4.8km/h 84% 0in /  0.0mm 0 W/m2
08:27 37.2 °F /  2.9 °C 32.9 °F /  0.5 °C 30.2in /  1021.3hPa West 2.9mph /  4.7km/h 5mph /  8km/h 84% 0in /  0.0mm 0 W/m2
08:32 37 °F /  2.8 °C 32.9 °F /  0.5 °C 30.2in /  1021.3hPa WNW 2.9mph /  4.7km/h 6mph /  9.7km/h 85% 0in /  0.0mm 0 W/m2
08:37 37 °F /  2.8 °C 32.9 °F /  0.5 °C 30.2in /  1021.7hPa WNW 2.9mph /  4.7km/h 7mph /  11.3km/h 85% 0in /  0.0mm 5 W/m2
08:43 37 °F /  2.8 °C 32.9 °F /  0.5 °C 30.2in /  1021.7hPa WNW 2mph /  3.2km/h 7mph /  11.3km/h 85% 0in /  0.0mm 5 W/m2
08:48 37.2 °F /  2.9 °C 33.1 °F /  0.6 °C 30.2in /  1021.7hPa NW 2.9mph /  4.7km/h 11mph /  17.7km/h 85% 0in /  0.0mm 7 W/m2
08:53 37.4 °F /  3 °C 33.1 °F /  0.6 °C 30.2in /  1021.7hPa WNW 4mph /  6.4km/h 6mph /  9.7km/h 84% 0in /  0.0mm 9 W/m2
08:58 37.4 °F /  3 °C 33.1 °F /  0.6 °C 30.2in /  1021.7hPa West 4mph /  6.4km/h 7mph /  11.3km/h 84% 0in /  0.0mm 11 W/m2
09:03 37.6 °F /  3.1 °C 33.3 °F /  0.7 °C 30.2in /  1021.7hPa WNW 2.9mph /  4.7km/h 8mph /  12.9km/h 84% 0in /  0.0mm 11 W/m2
09:08 37.4 °F /  3 °C 33.1 °F /  0.6 °C 30.2in /  1022.0hPa WNW 2.9mph /  4.7km/h 4mph /  6.4km/h 84% 0in /  0.0mm 11 W/m2
09:13 37.2 °F /  2.9 °C 32.9 °F /  0.5 °C 30.2in /  1022.0hPa West 2.9mph /  4.7km/h 6mph /  9.7km/h 84% 0in /  0.0mm 12 W/m2
09:18 37.2 °F /  2.9 °C 32.9 °F /  0.5 °C 30.2in /  1022.0hPa NW 2mph /  3.2km/h 7mph /  11.3km/h 84% 0in /  0.0mm 12 W/m2
09:23 37.2 °F /  2.9 °C 32.9 °F /  0.5 °C 30.2in /  1022.4hPa WNW 0.9mph /  1.4km/h 7mph /  11.3km/h 84% 0in /  0.0mm 14 W/m2
09:28 37.2 °F /  2.9 °C 32.9 °F /  0.5 °C 30.2in /  1022.4hPa West 2mph /  3.2km/h 6mph /  9.7km/h 84% 0in /  0.0mm 21 W/m2
09:33 37 °F /  2.8 °C 32.7 °F /  0.4 °C 30.2in /  1022.4hPa WNW 0.9mph /  1.4km/h 7mph /  11.3km/h 84% 0in /  0.0mm 19 W/m2
09:38 37 °F /  2.8 °C 32.7 °F /  0.4 °C 30.2in /  1022.4hPa WNW 0.9mph /  1.4km/h 3mph /  4.8km/h 84% 0in /  0.0mm 21 W/m2
09:43 36.9 °F /  2.7 °C 32.5 °F /  0.3 °C 30.2in /  1022.4hPa WNW 2.9mph /  4.7km/h 6mph /  9.7km/h 84% 0in /  0.0mm 23 W/m2
09:48 36.9 °F /  2.7 °C 32.5 °F /  0.3 °C 30.2in /  1022.4hPa WNW 2mph /  3.2km/h 4mph /  6.4km/h 84% 0in /  0.0mm 26 W/m2
09:53 36.9 °F /  2.7 °C 32.7 °F /  0.4 °C 30.2in /  1022.4hPa West 2mph /  3.2km/h 4mph /  6.4km/h 85% 0in /  0.0mm 32 W/m2
09:58 36.9 °F /  2.7 °C 32.7 °F /  0.4 °C 30.2in /  1022.7hPa NNW 2.9mph /  4.7km/h 3mph /  4.8km/h 85% 0in /  0.0mm 33 W/m2
10:03 37 °F /  2.8 °C 32.9 °F /  0.5 °C 30.2in /  1022.7hPa Calm   4mph /  6.4km/h 85% 0in /  0.0mm 32 W/m2
10:08 37 °F /  2.8 °C 32.7 °F /  0.4 °C 30.2in /  1022.7hPa WNW 6mph /  9.7km/h 6mph /  9.7km/h 84% 0in /  0.0mm 30 W/m2
10:13 37 °F /  2.8 °C 32.7 °F /  0.4 °C 30.2in /  1022.7hPa NE 4.9mph /  7.9km/h 7mph /  11.3km/h 84% 0in /  0.0mm 30 W/m2
10:18 37 °F /  2.8 °C 32.7 °F /  0.4 °C 30.2in /  1023.0hPa WNW 4.9mph /  7.9km/h 6mph /  9.7km/h 84% 0in /  0.0mm 28 W/m2
10:23 37.2 °F /  2.9 °C 32.5 °F /  0.3 °C 30.2in /  1023.0hPa NNW 2.9mph /  4.7km/h 8mph /  12.9km/h 83% 0in /  0.0mm 28 W/m2
10:28 37.4 °F /  3 °C 32.7 °F /  0.4 °C 30.2in /  1023.0hPa West 4mph /  6.4km/h 8mph /  12.9km/h 83% 0in /  0.0mm 30 W/m2
10:33 37.6 °F /  3.1 °C 32.9 °F /  0.5 °C 30.2in /  1023.0hPa West 4mph /  6.4km/h 7mph /  11.3km/h 83% 0in /  0.0mm 30 W/m2
10:38 37.6 °F /  3.1 °C 32.9 °F /  0.5 °C 30.2in /  1023.0hPa NW 2mph /  3.2km/h 5mph /  8km/h 83% 0in /  0.0mm 30 W/m2
10:43 37.6 °F /  3.1 °C 32.5 °F /  0.3 °C 30.2in /  1023.4hPa WNW 2.9mph /  4.7km/h 5mph /  8km/h 82% 0in /  0.0mm 28 W/m2
10:48 37.4 °F /  3 °C 32.4 °F /  0.2 °C 30.2in /  1023.4hPa North 2.9mph /  4.7km/h 9mph /  14.5km/h 82% 0in /  0.0mm 28 W/m2
10:53 37.4 °F /  3 °C 32.4 °F /  0.2 °C 30.2in /  1023.0hPa NW 0.9mph /  1.4km/h 3mph /  4.8km/h 82% 0in /  0.0mm 26 W/m2
10:58 37.4 °F /  3 °C 32.4 °F /  0.2 °C 30.2in /  1023.0hPa ENE 2mph /  3.2km/h 9mph /  14.5km/h 82% 0in /  0.0mm 28 W/m2
11:03 37.4 °F /  3 °C 32.4 °F /  0.2 °C 30.2in /  1023.0hPa NNW 2.9mph /  4.7km/h 4mph /  6.4km/h 82% 0in /  0.0mm 30 W/m2
11:08 37.4 °F /  3 °C 32.4 °F /  0.2 °C 30.2in /  1023.0hPa NNW 2.9mph /  4.7km/h 4mph /  6.4km/h 82% 0in /  0.0mm 28 W/m2
11:13 37.6 °F /  3.1 °C 32.4 °F /  0.2 °C 30.2in /  1023.0hPa WNW 8.9mph /  14.3km/h 11mph /  17.7km/h 81% 0in /  0.0mm 28 W/m2
11:18 37.6 °F /  3.1 °C 32.4 °F /  0.2 °C 30.2in /  1023.0hPa West 2.9mph /  4.7km/h 6mph /  9.7km/h 81% 0in /  0.0mm 26 W/m2
11:23 37.8 °F /  3.2 °C 32.5 °F /  0.3 °C 30.2in /  1023.0hPa WNW 11mph /  17.7km/h 11mph /  17.7km/h 81% 0in /  0.0mm 26 W/m2
11:28 37.8 °F /  3.2 °C 32.5 °F /  0.3 °C 30.2in /  1023.0hPa NW 2mph /  3.2km/h 7mph /  11.3km/h 81% 0in /  0.0mm 28 W/m2
11:33 37.9 °F /  3.3 °C 32.4 °F /  0.2 °C 30.2in /  1023.0hPa WNW 2mph /  3.2km/h 4mph /  6.4km/h 80% 0in /  0.0mm 28 W/m2
11:38 38.1 °F /  3.4 °C 32.5 °F /  0.3 °C 30.2in /  1023.0hPa NW 0.9mph /  1.4km/h 7mph /  11.3km/h 80% 0in /  0.0mm 28 W/m2
11:43 38.3 °F /  3.5 °C 32.7 °F /  0.4 °C 30.2in /  1023.0hPa NE 2.9mph /  4.7km/h 8mph /  12.9km/h 80% 0in /  0.0mm 39 W/m2
11:48 38.5 °F /  3.6 °C 32.5 °F /  0.3 °C 30.2in /  1023.4hPa WSW 2.9mph /  4.7km/h 8mph /  12.9km/h 79% 0in /  0.0mm 30 W/m2
11:53 38.7 °F /  3.7 °C 32.7 °F /  0.4 °C 30.2in /  1023.4hPa NNW 4mph /  6.4km/h 6mph /  9.7km/h 79% 0in /  0.0mm 32 W/m2
11:58 38.8 °F /  3.8 °C 32.9 °F /  0.5 °C 30.2in /  1023.4hPa WNW 4.9mph /  7.9km/h 9mph /  14.5km/h 79% 0in /  0.0mm 54 W/m2
12:03 39.2 °F /  4 °C 32.9 °F /  0.5 °C 30.2in /  1023.4hPa NW 8.9mph /  14.3km/h 9mph /  14.5km/h 78% 0in /  0.0mm 67 W/m2
12:08 39.4 °F /  4.1 °C 33.1 °F /  0.6 °C 30.2in /  1023.4hPa WSW 2.9mph /  4.7km/h 7mph /  11.3km/h 78% 0in /  0.0mm 111 W/m2
12:13 39.6 °F /  4.2 °C 33.3 °F /  0.7 °C 30.2in /  1023.4hPa NE 2mph /  3.2km/h 9mph /  14.5km/h 78% 0in /  0.0mm 114 W/m2
12:18 39.6 °F /  4.2 °C 32.9 °F /  0.5 °C 30.2in /  1023.4hPa WNW 4.9mph /  7.9km/h 9mph /  14.5km/h 77% 0in /  0.0mm 49 W/m2
12:23 39.6 °F /  4.2 °C 32.5 °F /  0.3 °C 30.2in /  1023.4hPa North 4mph /  6.4km/h 9mph /  14.5km/h 76% 0in /  0.0mm 51 W/m2
12:28 39.6 °F /  4.2 °C 32.9 °F /  0.5 °C 30.2in /  1023.4hPa WNW 2mph /  3.2km/h 5mph /  8km/h 77% 0in /  0.0mm 39 W/m2
12:33 39.7 °F /  4.3 °C 33.1 °F /  0.6 °C 30.2in /  1023.4hPa ENE 4.9mph /  7.9km/h 8mph /  12.9km/h 77% 0in /  0.0mm 67 W/m2
12:38 39.7 °F /  4.3 °C 33.4 °F /  0.8 °C 30.2in /  1023.4hPa North 2.9mph /  4.7km/h 4mph /  6.4km/h 78% 0in /  0.0mm 79 W/m2
12:43 39.7 °F /  4.3 °C 33.1 °F /  0.6 °C 30.2in /  1023.0hPa North 2.9mph /  4.7km/h 8mph /  12.9km/h 77% 0in /  0.0mm 77 W/m2
12:48 39.9 °F /  4.4 °C 33.6 °F /  0.9 °C 30.2in /  1023.0hPa WNW 4mph /  6.4km/h 8mph /  12.9km/h 78% 0in /  0.0mm 105 W/m2
12:53 40.1 °F /  4.5 °C 34.2 °F /  1.2 °C 30.2in /  1023.0hPa West 6.9mph /  11.1km/h 8mph /  12.9km/h 79% 0in /  0.0mm 100 W/m2
12:58 40.3 °F /  4.6 °C 34 °F /  1.1 °C 30.2in /  1023.0hPa NNW 4.9mph /  7.9km/h 10mph /  16.1km/h 78% 0in /  0.0mm 86 W/m2
13:03 40.5 °F /  4.7 °C 34.5 °F /  1.4 °C 30.2in /  1023.0hPa West 2mph /  3.2km/h 4mph /  6.4km/h 79% 0in /  0.0mm 56 W/m2
13:08 40.5 °F /  4.7 °C 34.5 °F /  1.4 °C 30.2in /  1023.0hPa WNW 2mph /  3.2km/h 8mph /  12.9km/h 79% 0in /  0.0mm 60 W/m2
13:13 40.5 °F /  4.7 °C 34.2 °F /  1.2 °C 30.2in /  1023.0hPa NNW 8.1mph /  13km/h 10mph /  16.1km/h 78% 0in /  0.0mm 51 W/m2
13:18 40.3 °F /  4.6 °C 33.6 °F /  0.9 °C 30.2in /  1023.0hPa NNW 4mph /  6.4km/h 13mph /  20.9km/h 77% 0in /  0.0mm 67 W/m2
13:23 40.3 °F /  4.6 °C 34 °F /  1.1 °C 30.2in /  1023.0hPa East 0.9mph /  1.4km/h 10mph /  16.1km/h 78% 0in /  0.0mm 76 W/m2
13:28 40.1 °F /  4.5 °C 33.8 °F /  1 °C 30.2in /  1023.0hPa North 4mph /  6.4km/h 5mph /  8km/h 78% 0in /  0.0mm 70 W/m2
13:33 40.1 °F /  4.5 °C 34.2 °F /  1.2 °C 30.2in /  1023.0hPa WNW 4mph /  6.4km/h 10mph /  16.1km/h 79% 0in /  0.0mm 67 W/m2
13:38 39.9 °F /  4.4 °C 33.6 °F /  0.9 °C 30.2in /  1023.0hPa ESE 2mph /  3.2km/h 4mph /  6.4km/h 78% 0in /  0.0mm 72 W/m2
13:43 39.9 °F /  4.4 °C 33.6 °F /  0.9 °C 30.2in /  1023.0hPa NE 0.9mph /  1.4km/h 6mph /  9.7km/h 78% 0in /  0.0mm 67 W/m2
13:48 39.9 °F /  4.4 °C 33.6 °F /  0.9 °C 30.2in /  1023.0hPa West 2.9mph /  4.7km/h 4mph /  6.4km/h 78% 0in /  0.0mm 49 W/m2
13:53 40.1 °F /  4.5 °C 33.4 °F /  0.8 °C 30.2in /  1023.0hPa West 6mph /  9.7km/h 6mph /  9.7km/h 77% 0in /  0.0mm 32 W/m2
13:58 39.9 °F /  4.4 °C 32.9 °F /  0.5 °C 30.2in /  1023.0hPa WNW 4mph /  6.4km/h 8mph /  12.9km/h 76% 0in /  0.0mm 32 W/m2
14:03 40.1 °F /  4.5 °C 33.1 °F /  0.6 °C 30.2in /  1023.0hPa NW 2mph /  3.2km/h 8mph /  12.9km/h 76% 0in /  0.0mm 32 W/m2
14:08 40.1 °F /  4.5 °C 32.9 °F /  0.5 °C 30.2in /  1023.0hPa West 8.9mph /  14.3km/h 11mph /  17.7km/h 75% 0in /  0.0mm 37 W/m2
14:13 40.3 °F /  4.6 °C 33.1 °F /  0.6 °C 30.2in /  1023.0hPa NW 0.9mph /  1.4km/h 11mph /  17.7km/h 75% 0in /  0.0mm 35 W/m2
14:18 40.3 °F /  4.6 °C 32.7 °F /  0.4 °C 30.2in /  1023.0hPa NW 2.9mph /  4.7km/h 8mph /  12.9km/h 74% 0in /  0.0mm 28 W/m2
14:23 40.3 °F /  4.6 °C 32.4 °F /  0.2 °C 30.2in /  1023.0hPa West 6mph /  9.7km/h 11mph /  17.7km/h 73% 0in /  0.0mm 26 W/m2
14:28 40.5 °F /  4.7 °C 32.5 °F /  0.3 °C 30.2in /  1023.0hPa West 2mph /  3.2km/h 6mph /  9.7km/h 73% 0in /  0.0mm 28 W/m2
14:33 40.5 °F /  4.7 °C 32.9 °F /  0.5 °C 30.2in /  1023.0hPa North 2.9mph /  4.7km/h 5mph /  8km/h 74% 0in /  0.0mm 28 W/m2
14:38 40.5 °F /  4.7 °C 32.2 °F /  0.1 °C 30.2in /  1023.0hPa WNW 2.9mph /  4.7km/h 5mph /  8km/h 72% 0in /  0.0mm 28 W/m2
14:43 40.5 °F /  4.7 °C 32.2 °F /  0.1 °C 30.2in /  1023.0hPa ESE 2.9mph /  4.7km/h 9mph /  14.5km/h 72% 0in /  0.0mm 39 W/m2
14:48 40.5 °F /  4.7 °C 32.2 °F /  0.1 °C 30.2in /  1023.0hPa SW 4mph /  6.4km/h 5mph /  8km/h 72% 0in /  0.0mm 49 W/m2
14:53 40.6 °F /  4.8 °C 32.7 °F /  0.4 °C 30.2in /  1023.0hPa North 6.9mph /  11.1km/h 9mph /  14.5km/h 73% 0in /  0.0mm 35 W/m2
14:58 40.6 °F /  4.8 °C 32.4 °F /  0.2 °C 30.2in /  1023.0hPa East 0.9mph /  1.4km/h 5mph /  8km/h 72% 0in /  0.0mm 79 W/m2
15:03 40.6 °F /  4.8 °C 32.7 °F /  0.4 °C 30.2in /  1023.0hPa North 0.9mph /  1.4km/h 4mph /  6.4km/h 73% 0in /  0.0mm 69 W/m2
15:08 40.8 °F /  4.9 °C 32.9 °F /  0.5 °C 30.2in /  1023.0hPa WNW 2mph /  3.2km/h 4mph /  6.4km/h 73% 0in /  0.0mm 54 W/m2
15:13 41 °F /  5 °C 32.7 °F /  0.4 °C 30.2in /  1023.0hPa North 2mph /  3.2km/h 4mph /  6.4km/h 72% 0in /  0.0mm 46 W/m2
15:18 41 °F /  5 °C 32.7 °F /  0.4 °C 30.2in /  1023.0hPa NNE 2.9mph /  4.7km/h 5mph /  8km/h 72% 0in /  0.0mm 40 W/m2
15:23 41.2 °F /  5.1 °C 32.9 °F /  0.5 °C 30.2in /  1023.0hPa NW 2mph /  3.2km/h 3mph /  4.8km/h 72% 0in /  0.0mm 33 W/m2
15:29 41 °F /  5 °C 32.4 °F /  0.2 °C 30.2in /  1023.0hPa NW 0.9mph /  1.4km/h 11mph /  17.7km/h 71% 0in /  0.0mm 35 W/m2
15:34 41.2 °F /  5.1 °C 33.3 °F /  0.7 °C 30.2in /  1023.0hPa NNE 2mph /  3.2km/h 2mph /  3.2km/h 73% 0in /  0.0mm 37 W/m2
15:39 41 °F /  5 °C 33.1 °F /  0.6 °C 30.2in /  1023.4hPa West 2mph /  3.2km/h 11mph /  17.7km/h 73% 0in /  0.0mm 23 W/m2
15:44 40.8 °F /  4.9 °C 32.5 °F /  0.3 °C 30.2in /  1023.4hPa WNW 4mph /  6.4km/h 6mph /  9.7km/h 72% 0in /  0.0mm 19 W/m2
15:49 40.8 °F /  4.9 °C 32.2 °F /  0.1 °C 30.2in /  1023.4hPa NW 2.9mph /  4.7km/h 4mph /  6.4km/h 71% 0in /  0.0mm 18 W/m2
15:54 40.6 °F /  4.8 °C 32.4 °F /  0.2 °C 30.2in /  1023.4hPa WNW 2.9mph /  4.7km/h 4mph /  6.4km/h 72% 0in /  0.0mm 18 W/m2
15:59 40.5 °F /  4.7 °C 32.5 °F /  0.3 °C 30.2in /  1023.4hPa NW 6mph /  9.7km/h 8mph /  12.9km/h 73% 0in /  0.0mm 14 W/m2
16:04 40.3 °F /  4.6 °C 32.7 °F /  0.4 °C 30.2in /  1023.4hPa West 6mph /  9.7km/h 10mph /  16.1km/h 74% 0in /  0.0mm 12 W/m2
16:09 40.1 °F /  4.5 °C 32.5 °F /  0.3 °C 30.2in /  1023.4hPa WNW 4mph /  6.4km/h 6mph /  9.7km/h 74% 0in /  0.0mm 12 W/m2
16:14 39.9 °F /  4.4 °C 32.7 °F /  0.4 °C 30.2in /  1023.4hPa WNW 2.9mph /  4.7km/h 7mph /  11.3km/h 75% 0in /  0.0mm 11 W/m2
16:19 39.7 °F /  4.3 °C 32.7 °F /  0.4 °C 30.2in /  1023.4hPa WNW 4.9mph /  7.9km/h 11mph /  17.7km/h 76% 0in /  0.0mm 11 W/m2
16:24 39.6 °F /  4.2 °C 32.5 °F /  0.3 °C 30.2in /  1023.7hPa NW 8.1mph /  13km/h 11mph /  17.7km/h 76% 0in /  0.0mm 9 W/m2
16:29 39.6 °F /  4.2 °C 32.9 °F /  0.5 °C 30.2in /  1023.7hPa West 6mph /  9.7km/h 10mph /  16.1km/h 77% 0in /  0.0mm 7 W/m2
16:34 39.4 °F /  4.1 °C 32.7 °F /  0.4 °C 30.2in /  1023.7hPa West 8.9mph /  14.3km/h 9mph /  14.5km/h 77% 0in /  0.0mm 5 W/m2
16:39 39.4 °F /  4.1 °C 32.7 °F /  0.4 °C 30.2in /  1023.7hPa NW 6mph /  9.7km/h 9mph /  14.5km/h 77% 0in /  0.0mm 5 W/m2
16:44 39.2 °F /  4 °C 32.9 °F /  0.5 °C 30.2in /  1023.7hPa West 4mph /  6.4km/h 10mph /  16.1km/h 78% 0in /  0.0mm 0 W/m2
16:49 39 °F /  3.9 °C 32.7 °F /  0.4 °C 30.2in /  1023.7hPa West 4mph /  6.4km/h 7mph /  11.3km/h 78% 0in /  0.0mm 0 W/m2
16:54 38.8 °F /  3.8 °C 32.5 °F /  0.3 °C 30.2in /  1023.7hPa WNW 2.9mph /  4.7km/h 10mph /  16.1km/h 78% 0in /  0.0mm 0 W/m2
16:59 38.7 °F /  3.7 °C 32.7 °F /  0.4 °C 30.2in /  1024.0hPa West 2.9mph /  4.7km/h 4mph /  6.4km/h 79% 0in /  0.0mm 0 W/m2
17:04 38.5 °F /  3.6 °C 32.9 °F /  0.5 °C 30.2in /  1024.0hPa WNW 2mph /  3.2km/h 3mph /  4.8km/h 80% 0in /  0.0mm 0 W/m2
17:09 38.1 °F /  3.4 °C 32.5 °F /  0.3 °C 30.2in /  1024.0hPa Calm   2mph /  3.2km/h 80% 0in /  0.0mm 0 W/m2
17:14 37.9 °F /  3.3 °C 32.7 °F /  0.4 °C 30.2in /  1024.0hPa Calm   2mph /  3.2km/h 81% 0in /  0.0mm 0 W/m2
17:19 37.9 °F /  3.3 °C 32.7 °F /  0.4 °C 30.2in /  1024.0hPa WNW 0.9mph /  1.4km/h 4mph /  6.4km/h 81% 0in /  0.0mm 0 W/m2
17:24 37.9 °F /  3.3 °C 32.9 °F /  0.5 °C 30.2in /  1024.0hPa WNW 2mph /  3.2km/h 2mph /  3.2km/h 82% 0in /  0.0mm 0 W/m2
17:29 37.8 °F /  3.2 °C 32.7 °F /  0.4 °C 30.3in /  1024.4hPa West 0.9mph /  1.4km/h 1mph /  1.6km/h 82% 0in /  0.0mm 0 W/m2
17:34 37.8 °F /  3.2 °C 33.1 °F /  0.6 °C 30.3in /  1024.4hPa Calm   1mph /  1.6km/h 83% 0in /  0.0mm 0 W/m2
17:39 37.8 °F /  3.2 °C 33.1 °F /  0.6 °C 30.3in /  1024.4hPa West 0.9mph /  1.4km/h 2mph /  3.2km/h 83% 0in /  0.0mm 0 W/m2
17:44 37.8 °F /  3.2 °C 33.1 °F /  0.6 °C 30.3in /  1024.4hPa West 6mph /  9.7km/h 7mph /  11.3km/h 83% 0in /  0.0mm 0 W/m2
17:49 37.8 °F /  3.2 °C 33.1 °F /  0.6 °C 30.3in /  1024.4hPa WSW 2.9mph /  4.7km/h 4mph /  6.4km/h 83% 0in /  0.0mm 0 W/m2
17:54 37.9 °F /  3.3 °C 33.3 °F /  0.7 °C 30.3in /  1024.4hPa NW 2mph /  3.2km/h 9mph /  14.5km/h 83% 0in /  0.0mm 0 W/m2
17:59 37.9 °F /  3.3 °C 33.3 °F /  0.7 °C 30.2in /  1024.0hPa West 2mph /  3.2km/h 6mph /  9.7km/h 83% 0in /  0.0mm 0 W/m2
18:04 38.1 °F /  3.4 °C 33.1 °F /  0.6 °C 30.2in /  1024.0hPa WNW 2.9mph /  4.7km/h 9mph /  14.5km/h 82% 0in /  0.0mm 0 W/m2
18:09 38.1 °F /  3.4 °C 33.1 °F /  0.6 °C 30.2in /  1024.0hPa West 6mph /  9.7km/h 9mph /  14.5km/h 82% 0in /  0.0mm 0 W/m2
18:14 38.3 °F /  3.5 °C 32.9 °F /  0.5 °C 30.2in /  1024.0hPa WNW 4mph /  6.4km/h 7mph /  11.3km/h 81% 0in /  0.0mm 0 W/m2
18:19 38.3 °F /  3.5 °C 32.9 °F /  0.5 °C 30.2in /  1024.0hPa WNW 2mph /  3.2km/h 8mph /  12.9km/h 81% 0in /  0.0mm 0 W/m2
18:24 38.1 °F /  3.4 °C 32.7 °F /  0.4 °C 30.2in /  1024.0hPa West 2mph /  3.2km/h 3mph /  4.8km/h 81% 0in /  0.0mm 0 W/m2
18:29 37.9 °F /  3.3 °C 32.7 °F /  0.4 °C 30.2in /  1024.0hPa West 2mph /  3.2km/h 5mph /  8km/h 81% 0in /  0.0mm 0 W/m2
18:34 37.8 °F /  3.2 °C 32.7 °F /  0.4 °C 30.2in /  1024.0hPa WNW 0.9mph /  1.4km/h 3mph /  4.8km/h 82% 0in /  0.0mm 0 W/m2
18:39 37.4 °F /  3 °C 32.7 °F /  0.4 °C 30.2in /  1024.0hPa West 2.9mph /  4.7km/h 4mph /  6.4km/h 83% 0in /  0.0mm 0 W/m2
18:44 37 °F /  2.8 °C 32.4 °F /  0.2 °C 30.3in /  1024.4hPa West 2mph /  3.2km/h 3mph /  4.8km/h 83% 0in /  0.0mm 0 W/m2
18:49 36.9 °F /  2.7 °C 32.2 °F /  0.1 °C 30.3in /  1024.4hPa West 2.9mph /  4.7km/h 4mph /  6.4km/h 83% 0in /  0.0mm 0 W/m2
18:54 36.7 °F /  2.6 °C 32.4 °F /  0.2 °C 30.3in /  1024.4hPa WSW 2.9mph /  4.7km/h 4mph /  6.4km/h 84% 0in /  0.0mm 0 W/m2
18:59 36.7 °F /  2.6 °C 32.4 °F /  0.2 °C 30.3in /  1024.4hPa West 2mph /  3.2km/h 4mph /  6.4km/h 84% 0in /  0.0mm 0 W/m2
19:04 36.7 °F /  2.6 °C 32.4 °F /  0.2 °C 30.3in /  1024.4hPa West 2.9mph /  4.7km/h 4mph /  6.4km/h 84% 0in /  0.0mm 0 W/m2
19:09 36.5 °F /  2.5 °C 32.4 °F /  0.2 °C 30.3in /  1024.4hPa WNW 2.9mph /  4.7km/h 6mph /  9.7km/h 85% 0in /  0.0mm 0 W/m2
19:14 36.5 °F /  2.5 °C 32.4 °F /  0.2 °C 30.3in /  1024.7hPa West 2.9mph /  4.7km/h 4mph /  6.4km/h 85% 0in /  0.0mm 0 W/m2
19:19 36.7 °F /  2.6 °C 32.5 °F /  0.3 °C 30.3in /  1024.7hPa West 2.9mph /  4.7km/h 4mph /  6.4km/h 85% 0in /  0.0mm 0 W/m2
19:24 36.7 °F /  2.6 °C 32.5 °F /  0.3 °C 30.3in /  1024.7hPa WSW 6.9mph /  11.1km/h 7mph /  11.3km/h 85% 0in /  0.0mm 0 W/m2
19:29 36.7 °F /  2.6 °C 32.5 °F /  0.3 °C 30.3in /  1024.7hPa WNW 4mph /  6.4km/h 4mph /  6.4km/h 85% 0in /  0.0mm 0 W/m2
19:34 36.7 °F /  2.6 °C 32.5 °F /  0.3 °C 30.3in /  1024.7hPa WSW 4mph /  6.4km/h 7mph /  11.3km/h 85% 0in /  0.0mm 0 W/m2
19:39 36.7 °F /  2.6 °C 32.5 °F /  0.3 °C 30.3in /  1025.1hPa West 4mph /  6.4km/h 4mph /  6.4km/h 85% 0in /  0.0mm 0 W/m2
19:44 36.9 °F /  2.7 °C 32.7 °F /  0.4 °C 30.3in /  1025.1hPa West 2mph /  3.2km/h 7mph /  11.3km/h 85% 0in /  0.0mm 0 W/m2
19:49 36.7 °F /  2.6 °C 32.5 °F /  0.3 °C 30.3in /  1025.1hPa West 0.9mph /  1.4km/h 3mph /  4.8km/h 85% 0in /  0.0mm 0 W/m2
19:54 36.7 °F /  2.6 °C 32.5 °F /  0.3 °C 30.3in /  1025.1hPa WNW 2.9mph /  4.7km/h 7mph /  11.3km/h 85% 0in /  0.0mm 0 W/m2
19:59 36.5 °F /  2.5 °C 32.4 °F /  0.2 °C 30.3in /  1025.1hPa West 0.9mph /  1.4km/h 3mph /  4.8km/h 85% 0in /  0.0mm 0 W/m2
20:04 36.3 °F /  2.4 °C 32.2 °F /  0.1 °C 30.3in /  1025.1hPa West 2mph /  3.2km/h 4mph /  6.4km/h 85% 0in /  0.0mm 0 W/m2
20:09 36.1 °F /  2.3 °C 32.4 °F /  0.2 °C 30.3in /  1025.1hPa Calm   3mph /  4.8km/h 86% 0in /  0.0mm 0 W/m2
Juneau County Weather
Compliments of Weather Underground - 2 mb